createdAt,value
2018-08-28T00:01:56.899Z,1.73
2018-08-28T00:04:25.487Z,1.90
2018-08-28T00:06:53.929Z,1.93
2018-08-28T00:09:22.723Z,1.90
2018-08-28T00:11:51.173Z,2.00
2018-08-28T00:14:19.654Z,1.83
2018-08-28T00:16:48.090Z,2.00
2018-08-28T00:19:17.501Z,2.17
2018-08-28T00:21:46.046Z,1.83
2018-08-28T00:24:14.529Z,2.20
2018-08-28T00:26:42.975Z,2.47
2018-08-28T00:29:11.457Z,2.60
2018-08-28T00:31:39.878Z,2.70
2018-08-28T00:34:08.358Z,2.30
2018-08-28T00:36:36.803Z,2.57
2018-08-28T00:39:06.198Z,2.37
2018-08-28T00:41:34.658Z,1.83
2018-08-28T00:44:03.200Z,1.80
2018-08-28T00:46:31.841Z,1.97
2018-08-28T00:49:00.343Z,2.00
2018-08-28T00:51:28.812Z,1.50
2018-08-28T00:53:57.289Z,1.60
2018-08-28T00:56:25.754Z,1.30
2018-08-28T00:58:54.242Z,1.60
2018-08-28T01:01:22.720Z,1.70
2018-08-28T01:03:51.180Z,1.70
2018-08-28T01:06:19.649Z,1.70
2018-08-28T01:08:48.242Z,1.80
2018-08-28T01:11:16.713Z,1.73
2018-08-28T01:13:45.163Z,1.93
2018-08-28T01:16:13.709Z,2.20
2018-08-28T01:18:42.248Z,2.03
2018-08-28T01:21:10.716Z,1.87
2018-08-28T01:23:39.218Z,2.00
2018-08-28T01:26:08.039Z,1.67
2018-08-28T01:28:36.499Z,1.73
2018-08-28T01:31:05.019Z,2.27
2018-08-28T01:33:33.462Z,2.30
2018-08-28T01:36:01.928Z,1.73
2018-08-28T01:38:30.407Z,1.77
2018-08-28T01:40:58.913Z,1.63
2018-08-28T01:43:30.611Z,1.70
2018-08-28T01:45:59.132Z,1.80
2018-08-28T01:48:27.771Z,1.60
2018-08-28T01:50:56.319Z,1.80
2018-08-28T01:53:24.828Z,1.53
2018-08-28T01:55:53.363Z,1.60
2018-08-28T01:58:21.866Z,1.57
2018-08-28T02:00:50.310Z,1.70
2018-08-28T02:03:18.789Z,1.70
2018-08-28T02:05:47.268Z,1.90
2018-08-28T02:08:15.729Z,1.90
2018-08-28T02:10:44.187Z,1.80
2018-08-28T02:13:12.738Z,2.10
2018-08-28T02:15:41.136Z,2.40
2018-08-28T02:18:09.658Z,2.40
2018-08-28T02:20:38.101Z,1.93
2018-08-28T02:23:06.607Z,1.87
2018-08-28T02:25:35.042Z,3.03
2018-08-28T02:28:03.530Z,2.63
2018-08-28T02:30:32.024Z,2.70
2018-08-28T02:33:00.539Z,2.40
2018-08-28T02:35:28.974Z,2.53
2018-08-28T02:37:57.452Z,2.57
2018-08-28T02:40:25.937Z,2.37
2018-08-28T02:42:54.429Z,2.87
2018-08-28T02:45:22.911Z,2.63
2018-08-28T02:47:51.408Z,2.40
2018-08-28T02:50:19.855Z,2.53
2018-08-28T02:52:48.289Z,2.17
2018-08-28T02:55:16.759Z,1.90
2018-08-28T02:57:45.211Z,1.93
2018-08-28T03:00:13.689Z,1.77
2018-08-28T03:02:42.142Z,2.20
2018-08-28T03:05:10.590Z,1.80
2018-08-28T03:07:39.038Z,2.10
2018-08-28T03:10:07.556Z,2.10
2018-08-28T03:12:35.996Z,2.70
2018-08-28T03:15:04.543Z,2.80
2018-08-28T03:17:32.990Z,2.90
2018-08-28T03:20:01.475Z,2.90
2018-08-28T03:22:29.991Z,3.20
2018-08-28T03:24:58.470Z,3.10
2018-08-28T03:27:26.926Z,3.27
2018-08-28T03:29:55.429Z,2.67
2018-08-28T03:32:23.904Z,3.33
2018-08-28T03:34:52.549Z,3.70
2018-08-28T03:37:21.013Z,3.53
2018-08-28T03:39:49.450Z,4.10
2018-08-28T03:42:18.035Z,3.60
2018-08-28T03:44:46.516Z,3.20
2018-08-28T03:47:15.042Z,3.60
2018-08-28T03:49:43.508Z,3.90
2018-08-28T03:52:12.061Z,4.27
2018-08-28T03:54:40.513Z,3.53
2018-08-28T03:57:08.981Z,3.97
2018-08-28T03:59:37.566Z,3.80
2018-08-28T04:02:06.186Z,3.90
2018-08-28T04:04:34.623Z,3.73
2018-08-28T04:07:03.149Z,3.57
2018-08-28T04:09:31.614Z,3.10
2018-08-28T04:12:00.073Z,3.97
2018-08-28T04:14:28.522Z,3.90
2018-08-28T04:16:57.051Z,3.80
2018-08-28T04:19:25.478Z,3.47
2018-08-28T04:21:53.997Z,4.10
2018-08-28T04:24:22.420Z,3.17
2018-08-28T04:26:50.868Z,3.20
2018-08-28T04:29:19.319Z,4.00
2018-08-28T04:31:47.804Z,4.00
2018-08-28T04:34:16.279Z,4.17
2018-08-28T04:36:44.763Z,4.20
2018-08-28T04:39:13.199Z,4.67
2018-08-28T04:41:41.742Z,3.43
2018-08-28T04:44:10.281Z,3.63
2018-08-28T04:46:38.746Z,3.70
2018-08-28T04:49:07.182Z,3.43
2018-08-28T04:51:35.697Z,3.20
2018-08-28T04:54:04.209Z,3.40
2018-08-28T04:56:32.684Z,3.37
2018-08-28T04:59:01.138Z,3.47
2018-08-28T05:01:29.608Z,3.50
2018-08-28T05:03:58.099Z,3.23
2018-08-28T05:06:26.576Z,2.40
2018-08-28T05:08:55.089Z,2.67
2018-08-28T05:11:23.615Z,3.27
2018-08-28T05:13:52.085Z,2.90
2018-08-28T05:16:20.553Z,3.30
2018-08-28T05:18:48.991Z,4.60
2018-08-28T05:21:17.467Z,3.80
2018-08-28T05:23:45.987Z,4.10
2018-08-28T05:26:14.467Z,5.77
2018-08-28T05:28:42.907Z,5.90
2018-08-28T05:31:11.373Z,6.60
2018-08-28T05:33:39.874Z,6.17
2018-08-28T05:36:08.346Z,6.80
2018-08-28T05:38:36.833Z,7.50
2018-08-28T05:41:05.342Z,7.27
2018-08-28T05:43:33.828Z,7.80
2018-08-28T05:46:02.289Z,6.60
2018-08-28T05:48:30.843Z,7.27
2018-08-28T05:50:59.298Z,8.13
2018-08-28T05:53:27.846Z,7.30
2018-08-28T05:55:56.295Z,7.30
2018-08-28T05:58:24.824Z,6.97
2018-08-28T06:00:53.403Z,7.17
2018-08-28T06:03:22.050Z,7.70
2018-08-28T06:05:50.378Z,7.43
2018-08-28T06:08:18.993Z,8.03
2018-08-28T06:10:47.495Z,7.67
2018-08-28T06:13:15.961Z,7.57
2018-08-28T06:15:44.414Z,7.80
2018-08-28T06:18:12.895Z,7.47
2018-08-28T06:20:41.353Z,7.80
2018-08-28T06:23:09.944Z,7.43
2018-08-28T06:25:38.367Z,8.13
2018-08-28T06:28:06.867Z,8.90
2018-08-28T06:30:35.333Z,7.77
2018-08-28T06:33:03.834Z,7.93
2018-08-28T06:35:32.315Z,7.43
2018-08-28T06:38:00.850Z,7.77
2018-08-28T06:40:29.302Z,6.93
2018-08-28T06:42:57.848Z,6.63
2018-08-28T06:45:26.323Z,6.70
2018-08-28T06:47:54.840Z,6.53
2018-08-28T06:50:23.284Z,7.00
2018-08-28T06:52:51.825Z,6.50
2018-08-28T06:55:20.283Z,6.60
2018-08-28T06:57:48.768Z,6.10
2018-08-28T07:00:17.275Z,6.20
2018-08-28T07:02:45.775Z,6.30
2018-08-28T07:05:14.274Z,6.13
2018-08-28T07:07:42.738Z,5.50
2018-08-28T07:10:11.376Z,5.87
2018-08-28T07:12:39.986Z,6.00
2018-08-28T07:15:08.547Z,5.30
2018-08-28T07:17:37.101Z,5.77
2018-08-28T07:20:05.862Z,5.50
2018-08-28T07:22:34.379Z,5.20
2018-08-28T07:25:02.872Z,5.63
2018-08-28T07:27:31.338Z,5.50
2018-08-28T07:29:59.786Z,5.20
2018-08-28T07:32:28.262Z,6.03
2018-08-28T07:34:56.693Z,4.93
2018-08-28T07:37:25.193Z,4.80
2018-08-28T07:39:53.724Z,5.17
2018-08-28T07:42:22.249Z,4.90
2018-08-28T07:44:50.751Z,4.50
2018-08-28T07:47:19.574Z,5.03
2018-08-28T07:49:48.118Z,4.90
2018-08-28T07:52:16.625Z,4.47
2018-08-28T07:54:45.170Z,4.40
2018-08-28T07:57:13.615Z,5.17
2018-08-28T07:59:42.219Z,5.17
2018-08-28T08:02:10.737Z,4.80
2018-08-28T08:04:39.203Z,4.73
2018-08-28T08:07:07.974Z,4.30
2018-08-28T08:09:36.495Z,4.50
2018-08-28T08:12:05.489Z,4.83
2018-08-28T08:14:33.946Z,4.10
2018-08-28T08:17:02.444Z,5.47
2018-08-28T08:19:30.946Z,5.00
2018-08-28T08:21:59.488Z,4.43
2018-08-28T08:24:27.956Z,4.53
2018-08-28T08:26:56.432Z,4.00
2018-08-28T08:29:24.947Z,4.37
2018-08-28T08:31:53.389Z,4.17
2018-08-28T08:34:21.879Z,3.93
2018-08-28T08:36:50.354Z,4.33
2018-08-28T08:39:18.853Z,3.87
2018-08-28T08:41:47.380Z,4.20
2018-08-28T08:44:15.865Z,4.63
2018-08-28T08:46:44.319Z,4.30
2018-08-28T08:49:12.789Z,4.73
2018-08-28T08:51:41.250Z,4.10
2018-08-28T08:54:09.708Z,3.90
2018-08-28T08:56:38.172Z,4.73
2018-08-28T08:59:06.669Z,4.30
2018-08-28T09:01:35.148Z,4.03
2018-08-28T09:04:03.634Z,3.70
2018-08-28T09:06:32.095Z,4.40
2018-08-28T09:09:00.594Z,4.27
2018-08-28T09:11:29.057Z,4.03
2018-08-28T09:13:57.529Z,3.90
2018-08-28T09:16:25.971Z,3.93
2018-08-28T09:18:54.450Z,4.00
2018-08-28T09:21:22.956Z,3.93
2018-08-28T09:23:51.425Z,4.87
2018-08-28T09:26:19.878Z,4.03
2018-08-28T09:28:48.342Z,3.77
2018-08-28T09:31:16.905Z,3.40
2018-08-28T09:33:45.823Z,4.10
2018-08-28T09:36:14.276Z,3.87
2018-08-28T09:38:42.751Z,3.80
2018-08-28T09:41:11.218Z,3.57
2018-08-28T09:43:40.114Z,3.50
2018-08-28T09:46:08.521Z,3.57
2018-08-28T09:48:36.986Z,3.83
2018-08-28T09:51:05.508Z,3.47
2018-08-28T09:53:33.977Z,3.93
2018-08-28T09:56:02.435Z,3.77
2018-08-28T09:58:30.924Z,3.77
2018-08-28T10:01:04.780Z,4.53
2018-08-28T10:03:33.259Z,3.62
2018-08-28T10:06:01.700Z,3.75
2018-08-28T10:08:30.166Z,3.70
2018-08-28T10:10:58.689Z,4.15
2018-08-28T10:13:27.493Z,3.75
2018-08-28T10:15:55.934Z,4.00
2018-08-28T10:18:24.395Z,3.77
2018-08-28T10:20:52.858Z,3.85
2018-08-28T10:23:21.341Z,4.40
2018-08-28T10:25:49.783Z,4.45
2018-08-28T10:28:18.250Z,4.40
2018-08-28T10:30:46.702Z,3.50
2018-08-28T10:33:15.167Z,3.98
2018-08-28T10:35:43.648Z,4.12
2018-08-28T10:38:12.588Z,3.98
2018-08-28T10:40:41.024Z,4.12
2018-08-28T10:43:09.486Z,3.52
2018-08-28T10:45:37.970Z,3.75
2018-08-28T10:48:06.588Z,3.90
2018-08-28T10:50:35.146Z,4.00
2018-08-28T10:53:03.765Z,3.30
2018-08-28T10:55:32.221Z,3.62
2018-08-28T10:58:00.639Z,3.52
2018-08-28T11:00:29.104Z,3.30
2018-08-28T11:02:57.562Z,3.52
2018-08-28T11:05:26.027Z,4.03
2018-08-28T11:07:54.466Z,4.25
2018-08-28T11:10:22.946Z,3.85
2018-08-28T11:12:51.538Z,3.40
2018-08-28T11:15:20.038Z,3.20
2018-08-28T11:17:48.519Z,3.45
2018-08-28T11:20:17.020Z,2.90
2018-08-28T11:22:45.514Z,3.30
2018-08-28T11:25:14.004Z,3.47
2018-08-28T11:27:42.461Z,3.30
2018-08-28T11:30:10.991Z,3.33
2018-08-28T11:32:39.465Z,3.47
2018-08-28T11:35:07.918Z,3.45
2018-08-28T11:37:36.371Z,3.22
2018-08-28T11:40:04.946Z,3.75
2018-08-28T11:42:33.428Z,3.45
2018-08-28T11:45:01.916Z,3.67
2018-08-28T11:47:30.382Z,3.17
2018-08-28T11:49:58.876Z,3.67
2018-08-28T11:52:27.331Z,3.60
2018-08-28T11:54:55.817Z,3.98
2018-08-28T11:57:24.283Z,3.72
2018-08-28T11:59:52.758Z,3.60
2018-08-28T12:02:21.228Z,3.52
2018-08-28T12:04:49.735Z,3.33
2018-08-28T12:07:18.190Z,3.60
2018-08-28T12:09:46.646Z,3.90
2018-08-28T12:12:15.103Z,3.40
2018-08-28T12:14:43.579Z,3.22
2018-08-28T12:17:12.050Z,2.75
2018-08-28T12:19:40.530Z,3.17
2018-08-28T12:22:09.028Z,3.17
2018-08-28T12:24:37.493Z,3.33
2018-08-28T12:27:06.158Z,3.67
2018-08-28T12:29:34.691Z,3.40
2018-08-28T12:32:03.187Z,3.42
2018-08-28T12:34:31.662Z,2.90
2018-08-28T12:37:00.132Z,3.02
2018-08-28T12:39:28.577Z,3.37
2018-08-28T12:41:57.043Z,3.30
2018-08-28T12:44:25.547Z,3.40
2018-08-28T12:46:54.437Z,3.42
2018-08-28T12:49:22.913Z,3.40
2018-08-28T12:51:51.356Z,3.33
2018-08-28T12:54:19.833Z,3.55
2018-08-28T12:56:48.298Z,3.27
2018-08-28T12:59:16.796Z,3.22
2018-08-28T13:01:45.250Z,2.83
2018-08-28T13:04:13.734Z,2.77
2018-08-28T13:06:42.184Z,3.35
2018-08-28T13:09:10.674Z,3.25
2018-08-28T13:11:39.118Z,2.77
2018-08-28T13:14:07.626Z,3.45
2018-08-28T13:16:36.112Z,3.35
2018-08-28T13:19:04.818Z,3.30
2018-08-28T13:21:33.291Z,3.20
2018-08-28T13:24:01.785Z,3.00
2018-08-28T13:26:30.269Z,3.20
2018-08-28T13:28:58.733Z,2.95
2018-08-28T13:31:27.199Z,3.05
2018-08-28T13:33:55.686Z,3.52
2018-08-28T13:36:24.148Z,3.17
2018-08-28T13:38:52.623Z,3.15
2018-08-28T13:41:21.085Z,3.10
2018-08-28T13:43:49.770Z,2.90
2018-08-28T13:46:18.231Z,2.90
2018-08-28T13:48:46.743Z,3.22
2018-08-28T13:51:15.294Z,3.35
2018-08-28T13:53:43.848Z,3.00
2018-08-28T13:56:12.278Z,3.22
2018-08-28T13:58:40.777Z,3.15
2018-08-28T14:01:10.069Z,3.20
2018-08-28T14:03:38.534Z,3.10
2018-08-28T14:06:06.966Z,3.58
2018-08-28T14:08:35.438Z,3.52
2018-08-28T14:11:03.946Z,3.15
2018-08-28T14:13:32.474Z,3.30
2018-08-28T14:16:00.870Z,2.83
2018-08-28T14:18:29.612Z,3.47
2018-08-28T14:20:58.089Z,3.40
2018-08-28T14:23:26.558Z,3.20
2018-08-28T14:25:55.091Z,3.60
2018-08-28T14:28:23.561Z,3.37
2018-08-28T14:30:52.034Z,3.40
2018-08-28T14:33:20.497Z,3.47
2018-08-28T14:35:49.190Z,3.20
2018-08-28T14:38:17.593Z,3.00
2018-08-28T14:40:46.091Z,3.10
2018-08-28T14:43:14.607Z,3.35
2018-08-28T14:45:43.096Z,3.67
2018-08-28T14:48:11.574Z,3.70
2018-08-28T14:50:40.048Z,3.30
2018-08-28T14:53:08.524Z,3.30
2018-08-28T14:55:37.010Z,3.27
2018-08-28T14:58:05.484Z,3.50
2018-08-28T15:00:33.986Z,3.27
2018-08-28T15:03:02.445Z,3.20
2018-08-28T15:05:30.928Z,3.77
2018-08-28T15:07:59.357Z,3.12
2018-08-28T15:10:27.840Z,3.12
2018-08-28T15:12:56.324Z,3.20
2018-08-28T15:15:24.811Z,3.37
2018-08-28T15:17:53.299Z,3.27
2018-08-28T15:20:21.766Z,3.25
2018-08-28T15:22:50.239Z,3.20
2018-08-28T15:25:18.715Z,3.12
2018-08-28T15:27:47.154Z,3.80
2018-08-28T15:30:15.675Z,3.15
2018-08-28T15:32:44.156Z,3.40
2018-08-28T15:35:12.631Z,3.52
2018-08-28T15:37:41.072Z,3.87
2018-08-28T15:40:09.628Z,3.65
2018-08-28T15:42:38.098Z,3.30
2018-08-28T15:45:06.801Z,3.72
2018-08-28T15:47:35.245Z,3.30
2018-08-28T15:50:03.714Z,3.08
2018-08-28T15:52:32.181Z,3.52
2018-08-28T15:55:00.657Z,3.40
2018-08-28T15:57:29.110Z,3.52
2018-08-28T15:59:57.567Z,3.30
2018-08-28T16:02:26.071Z,3.42
2018-08-28T16:04:54.587Z,3.10
2018-08-28T16:07:23.061Z,3.55
2018-08-28T16:09:51.555Z,4.05
2018-08-28T16:12:20.023Z,3.58
2018-08-28T16:14:48.509Z,4.00
2018-08-28T16:17:16.950Z,3.55
2018-08-28T16:19:45.426Z,3.75
2018-08-28T16:22:16.028Z,3.52
2018-08-28T16:24:44.548Z,4.03
2018-08-28T16:27:13.021Z,4.10
2018-08-28T16:29:41.576Z,3.75
2018-08-28T16:32:09.978Z,3.67
2018-08-28T16:34:38.482Z,3.92
2018-08-28T16:37:07.015Z,3.77
2018-08-28T16:39:35.526Z,3.62
2018-08-28T16:42:03.897Z,3.40
2018-08-28T16:44:32.398Z,4.25
2018-08-28T16:47:00.838Z,3.85
2018-08-28T16:49:29.299Z,3.52
2018-08-28T16:51:57.805Z,3.30
2018-08-28T16:54:26.314Z,3.55
2018-08-28T16:56:54.750Z,3.77
2018-08-28T16:59:23.234Z,3.62
2018-08-28T17:01:51.765Z,3.72
2018-08-28T17:04:20.208Z,3.87
2018-08-28T17:06:48.677Z,4.05
2018-08-28T17:09:17.142Z,3.65
2018-08-28T17:11:45.571Z,3.70
2018-08-28T17:14:15.083Z,4.05
2018-08-28T17:16:43.547Z,3.77
2018-08-28T17:19:12.049Z,3.42
2018-08-28T17:21:40.518Z,3.85
2018-08-28T17:24:08.975Z,3.58
2018-08-28T17:26:37.507Z,3.50
2018-08-28T17:29:05.971Z,3.80
2018-08-28T17:31:34.443Z,3.60
2018-08-28T17:34:03.032Z,4.00
2018-08-28T17:36:31.606Z,3.80
2018-08-28T17:39:00.129Z,3.53
2018-08-28T17:41:28.623Z,3.62
2018-08-28T17:43:57.125Z,3.93
2018-08-28T17:46:25.606Z,4.13
2018-08-28T17:48:54.107Z,4.03
2018-08-28T17:51:22.544Z,3.85
2018-08-28T17:53:51.027Z,4.20
2018-08-28T17:56:19.472Z,4.20
2018-08-28T17:58:48.089Z,4.55
2018-08-28T18:01:16.547Z,4.03
2018-08-28T18:03:45.029Z,3.70
2018-08-28T18:06:13.469Z,3.80
2018-08-28T18:08:41.934Z,3.73
2018-08-28T18:11:10.379Z,3.30
2018-08-28T18:13:38.856Z,3.87
2018-08-28T18:16:07.303Z,3.57
2018-08-28T18:18:35.766Z,4.03
2018-08-28T18:21:04.244Z,4.30
2018-08-28T18:23:32.721Z,4.10
2018-08-28T18:26:01.204Z,4.07
2018-08-28T18:28:29.685Z,4.10
2018-08-28T18:30:58.114Z,4.10
2018-08-28T18:33:26.593Z,4.47
2018-08-28T18:35:55.080Z,4.00
2018-08-28T18:38:23.495Z,3.87
2018-08-28T18:40:51.911Z,4.30
2018-08-28T18:43:20.419Z,4.80
2018-08-28T18:45:48.857Z,4.50
2018-08-28T18:48:17.331Z,3.93
2018-08-28T18:50:45.772Z,4.10
2018-08-28T18:53:14.245Z,4.67
2018-08-28T18:55:42.699Z,4.57
2018-08-28T18:58:11.175Z,3.90
2018-08-28T19:00:39.605Z,4.40
2018-08-28T19:03:08.081Z,4.60
2018-08-28T19:05:36.550Z,4.07
2018-08-28T19:08:05.194Z,4.30
2018-08-28T19:10:33.641Z,4.80
2018-08-28T19:13:02.121Z,3.87
2018-08-28T19:15:30.572Z,4.47
2018-08-28T19:17:59.046Z,5.17
2018-08-28T19:20:27.515Z,4.43
2018-08-28T19:22:55.971Z,4.50
2018-08-28T19:25:24.410Z,4.43
2018-08-28T19:27:52.899Z,4.60
2018-08-28T19:30:21.361Z,4.60
2018-08-28T19:32:49.881Z,4.80
2018-08-28T19:35:18.334Z,4.43
2018-08-28T19:37:46.807Z,4.03
2018-08-28T19:40:15.263Z,4.47
2018-08-28T19:42:43.768Z,3.90
2018-08-28T19:45:12.263Z,4.33
2018-08-28T19:47:40.745Z,4.30
2018-08-28T19:50:09.208Z,4.47
2018-08-28T19:52:37.676Z,4.30
2018-08-28T19:55:06.195Z,4.70
2018-08-28T19:57:34.666Z,4.83
2018-08-28T20:00:03.208Z,4.83
2018-08-28T20:02:31.670Z,4.40
2018-08-28T20:05:00.102Z,4.80
2018-08-28T20:07:28.579Z,4.47
2018-08-28T20:09:57.053Z,4.37
2018-08-28T20:12:25.498Z,4.60
2018-08-28T20:14:53.974Z,5.10
2018-08-28T20:17:22.538Z,4.30
2018-08-28T20:19:50.954Z,4.77
2018-08-28T20:22:19.419Z,4.00
2018-08-28T20:24:47.941Z,4.00
2018-08-28T20:27:16.387Z,4.20
2018-08-28T20:29:44.866Z,4.00
2018-08-28T20:32:13.335Z,3.43
2018-08-28T20:34:41.819Z,4.03
2018-08-28T20:37:10.410Z,4.40
2018-08-28T20:39:38.938Z,3.87
2018-08-28T20:42:07.391Z,3.63
2018-08-28T20:44:35.905Z,4.50
2018-08-28T20:47:04.345Z,4.33
2018-08-28T20:49:32.822Z,4.47
2018-08-28T20:52:01.260Z,4.57
2018-08-28T20:54:29.734Z,4.00
2018-08-28T20:56:58.178Z,4.47
2018-08-28T20:59:26.648Z,4.27
2018-08-28T21:01:55.112Z,4.23
2018-08-28T21:04:23.557Z,4.10
2018-08-28T21:06:52.034Z,4.37
2018-08-28T21:09:20.468Z,4.77
2018-08-28T21:11:48.925Z,4.60
2018-08-28T21:14:17.359Z,3.90
2018-08-28T21:16:46.241Z,4.60
2018-08-28T21:19:14.689Z,4.43
2018-08-28T21:21:43.154Z,4.23
2018-08-28T21:24:11.610Z,4.60
2018-08-28T21:26:40.081Z,4.27
2018-08-28T21:29:08.590Z,4.97
2018-08-28T21:31:37.030Z,4.00
2018-08-28T21:34:05.502Z,4.93
2018-08-28T21:36:33.970Z,4.47
2018-08-28T21:39:02.474Z,4.40
2018-08-28T21:41:30.957Z,4.73
2018-08-28T21:43:59.443Z,4.40
2018-08-28T21:46:27.929Z,4.70
2018-08-28T21:48:56.384Z,4.50
2018-08-28T21:51:24.956Z,4.43
2018-08-28T21:53:53.431Z,4.23
2018-08-28T21:56:21.914Z,3.90
2018-08-28T21:58:50.353Z,4.53
2018-08-28T22:01:18.823Z,4.47
2018-08-28T22:03:47.318Z,4.20
2018-08-28T22:06:21.081Z,4.87
2018-08-28T22:08:49.573Z,4.30
2018-08-28T22:11:18.039Z,4.30
2018-08-28T22:13:46.527Z,4.93
2018-08-28T22:16:14.975Z,4.60
2018-08-28T22:18:43.441Z,4.47
2018-08-28T22:21:11.918Z,4.97
2018-08-28T22:23:40.555Z,4.63
2018-08-28T22:26:09.016Z,5.40
2018-08-28T22:28:37.503Z,4.80
2018-08-28T22:31:06.021Z,4.20
2018-08-28T22:33:34.467Z,4.60
2018-08-28T22:36:02.983Z,4.33
2018-08-28T22:38:31.422Z,4.33
2018-08-28T22:40:59.885Z,4.20
2018-08-28T22:43:28.363Z,4.67
2018-08-28T22:45:56.843Z,4.70
2018-08-28T22:48:25.308Z,4.63
2018-08-28T22:50:53.803Z,4.80
2018-08-28T22:53:22.239Z,4.50
2018-08-28T22:55:50.705Z,4.80
2018-08-28T22:58:19.151Z,4.20
2018-08-28T23:00:47.641Z,4.60
2018-08-28T23:03:16.109Z,4.27
2018-08-28T23:05:44.568Z,4.73
2018-08-28T23:08:13.061Z,4.87
2018-08-28T23:10:41.507Z,4.40
2018-08-28T23:13:09.974Z,4.67
2018-08-28T23:15:38.421Z,4.30
2018-08-28T23:18:06.897Z,4.37
2018-08-28T23:20:35.339Z,4.53
2018-08-28T23:23:03.797Z,4.33
2018-08-28T23:25:32.237Z,4.00
2018-08-28T23:28:00.714Z,4.00
2018-08-28T23:30:29.149Z,4.63
2018-08-28T23:32:57.626Z,3.73
2018-08-28T23:35:26.070Z,4.30
2018-08-28T23:37:54.575Z,4.33
2018-08-28T23:40:23.019Z,4.60
2018-08-28T23:42:51.515Z,5.00
2018-08-28T23:45:19.949Z,4.90
2018-08-28T23:47:48.463Z,4.67
2018-08-28T23:50:16.923Z,4.40
2018-08-28T23:52:45.410Z,4.70
2018-08-28T23:55:13.859Z,4.43
2018-08-28T23:57:42.349Z,3.93
